Decoded Metar for PHHI (WHEELER AFB. in HI, USA OAHU ISL.) (IATA:N/A) | Meteo·Mobile Aviation Weather
aviador You're here:

PHHI Decoded Metar

WHEELER AFB. in HI, USA OAHU ISL.
Report Time2019-03-21 18:56:00
UTC Time2019-03-22 10:46:20
Flight Rules Old
Wind080° at 06 kt
W.Decomp.*RWY 06: 5.9 kt HW 0.9 kt RCW
W.Rank080° ranks 2
Current wind is below 080° avg. (8.6)
Visibility9999 m
Phenomena:N/A
Clouds:N/A
Expected CloudBase > 2,400 ft AGL from Temp-Dew spread
CeilingNone
Temp22°C (ISA +9)
Dew Point16°C (69% RH)
AAT21.8°C
QNH1020 hPa
Density Alt1,854 ft
Elevation837 ft
Report Wrong Elevation
Raw Report
PHHI 211856Z AUTO 08006KT 10SM CLR 22/16 A3012 RMK AO2 SLPNO
T02240160 $=

Extra information for PHHI:More info

Metar Taf Metar & Taf Last 4 Metars F.Rules Stats Wind Profile Meteogram Temp Stats Airport Information Weather charts Add Link Nearby VenuesMetar ALERT Operation Metar Decoded Social comments